createdAt,value
2023-01-11T02:28:04.234Z,101351.98
2023-01-11T02:29:35.316Z,101355.34
2023-01-11T02:31:02.714Z,101359.91
2023-01-11T02:32:19.032Z,101387.73
2023-01-11T02:33:37.376Z,101373.97
2023-01-11T02:38:24.979Z,101370.03
2023-01-11T02:39:49.924Z,101370.69
2023-01-11T02:41:07.640Z,101381.16
2023-01-11T02:43:00.268Z,101395.06
2023-01-11T02:44:37.460Z,101393.25
2023-01-11T02:46:06.160Z,101389.89
2023-01-11T02:47:18.776Z,101397.56
2023-01-11T02:48:34.688Z,101378.44
2023-01-11T02:50:00.050Z,101365.31
2023-01-11T02:51:31.960Z,101366.11
2023-01-11T02:52:53.205Z,101381.53
2023-01-11T02:54:06.402Z,101365.85
2023-01-11T02:55:18.633Z,101374.55
2023-01-11T02:56:32.317Z,101391.02
2023-01-11T02:57:45.105Z,101383.23
2023-01-11T02:58:58.034Z,101400.62
2023-01-11T03:00:09.697Z,101370.95
2023-01-11T03:01:22.747Z,101370.84
2023-01-11T03:02:32.246Z,101386.37
2023-01-11T03:03:42.042Z,101362.07
2023-01-11T03:04:50.719Z,101371.63
2023-01-11T03:06:09.855Z,101380.32
2023-01-11T03:07:39.360Z,101362.91
2023-01-11T03:09:07.099Z,101385.50
2023-01-11T03:10:35.147Z,101384.52
2023-01-11T03:12:21.232Z,101380.99
2023-01-11T03:13:36.857Z,101365.31
2023-01-11T03:16:52.068Z,101375.90
2023-01-11T03:18:23.744Z,101402.48
2023-01-11T03:19:55.667Z,101368.55
2023-01-11T03:21:13.063Z,101384.12
2023-01-11T03:22:26.505Z,101372.82
2023-01-11T03:23:49.056Z,101380.59
2023-01-11T03:25:10.139Z,101378.86
2023-01-11T03:26:54.406Z,101389.48
2023-01-11T03:28:08.331Z,101378.16
2023-01-11T03:29:27.684Z,101397.30
2023-01-11T03:30:47.168Z,101377.20
2023-01-11T03:32:19.567Z,101382.22
2023-01-11T03:34:01.507Z,101389.91
2023-01-11T03:35:39.630Z,101408.36
2023-01-11T03:37:01.596Z,101407.49
2023-01-11T03:38:27.132Z,101395.33
2023-01-11T03:39:45.374Z,101369.94
2023-01-11T03:42:17.224Z,101368.40
2023-01-11T03:43:28.838Z,101375.02
2023-01-11T03:44:47.012Z,101375.81
2023-01-11T03:46:02.714Z,101376.84
2023-01-11T03:47:15.321Z,101383.67
2023-01-11T03:48:32.016Z,101416.63
2023-01-11T03:49:44.672Z,101388.84
2023-01-11T03:50:56.407Z,101400.02
2023-01-11T03:52:08.662Z,101403.69
2023-01-11T03:53:20.668Z,101399.42
2023-01-11T03:54:33.678Z,101396.70
2023-01-11T03:55:47.164Z,101389.87
2023-01-11T03:57:14.825Z,101387.19
2023-01-11T03:58:26.044Z,101402.86
2023-01-11T03:59:35.743Z,101411.38
2023-01-11T04:00:45.352Z,101413.91
2023-01-11T04:01:56.247Z,101412.04
2023-01-11T04:03:05.121Z,101399.80
2023-01-11T04:04:14.182Z,101410.22
2023-01-11T04:05:23.459Z,101379.83
2023-01-11T04:06:35.622Z,101392.81
2023-01-11T04:07:44.184Z,101395.50
2023-01-11T04:08:53.768Z,101393.89
2023-01-11T04:10:04.109Z,101391.98
2023-01-11T04:11:13.587Z,101402.45
2023-01-11T04:12:22.226Z,101392.23
2023-01-11T04:13:31.980Z,101387.14
2023-01-11T04:14:40.895Z,101396.70
2023-01-11T04:15:49.973Z,101388.05
2023-01-11T04:17:01.082Z,101387.31
2023-01-11T04:18:10.833Z,101422.06
2023-01-11T04:19:20.047Z,101428.17
2023-01-11T04:21:44.613Z,101404.09
2023-01-11T04:22:53.714Z,101407.24
2023-01-11T04:24:02.845Z,101392.44
2023-01-11T04:26:27.843Z,101426.40
2023-01-11T04:27:36.959Z,101420.77
2023-01-11T04:28:46.461Z,101424.98
2023-01-11T04:29:55.134Z,101422.34
2023-01-11T04:31:04.331Z,101431.15
2023-01-11T04:32:12.960Z,101417.30
2023-01-11T04:33:22.460Z,101411.05
2023-01-11T04:34:32.821Z,101410.27
2023-01-11T04:35:43.743Z,101413.61
2023-01-11T04:36:52.059Z,101407.50
2023-01-11T04:38:00.650Z,101423.95
2023-01-11T04:40:28.511Z,101415.43
2023-01-11T04:41:57.411Z,101432.33
2023-01-11T04:43:06.967Z,101415.05
2023-01-11T04:44:15.586Z,101401.98
2023-01-11T04:45:24.736Z,101419.35
2023-01-11T04:46:35.454Z,101434.11
2023-01-11T04:47:55.348Z,101411.50
2023-01-11T04:49:04.534Z,101411.50
2023-01-11T04:50:14.020Z,101416.87
2023-01-11T04:51:24.472Z,101410.84
2023-01-11T04:52:34.380Z,101421.22
2023-01-11T04:53:44.233Z,101434.20
2023-01-11T04:54:54.094Z,101442.80
2023-01-11T04:56:04.718Z,101439.32
2023-01-11T04:57:16.424Z,101436.67
2023-01-11T04:58:27.216Z,101443.45
2023-01-11T04:59:36.535Z,101443.66
2023-01-11T05:00:45.172Z,101433.28
2023-01-11T05:01:58.067Z,101443.79
2023-01-11T05:03:07.051Z,101442.18
2023-01-11T05:04:15.747Z,101447.27
2023-01-11T05:05:25.544Z,101429.16
2023-01-11T05:06:34.999Z,101433.63
2023-01-11T05:07:45.884Z,101433.67
2023-01-11T05:08:54.673Z,101425.94
2023-01-11T05:10:04.239Z,101426.85
2023-01-11T05:11:13.514Z,101431.15
2023-01-11T05:12:23.232Z,101423.33
2023-01-11T05:13:41.327Z,101432.97
2023-01-11T05:14:50.287Z,101435.41
2023-01-11T05:16:00.597Z,101431.89
2023-01-11T05:17:15.626Z,101428.45
2023-01-11T05:18:26.307Z,101417.99
2023-01-11T05:19:35.433Z,101431.68
2023-01-11T05:20:46.392Z,101435.97
2023-01-11T05:21:55.753Z,101436.89
2023-01-11T05:23:05.492Z,101435.23
2023-01-11T05:24:15.949Z,101434.50
2023-01-11T05:25:24.617Z,101444.09
2023-01-11T05:26:36.344Z,101435.19
2023-01-11T05:27:45.067Z,101441.23
2023-01-11T05:28:55.726Z,101427.25
2023-01-11T05:30:06.901Z,101445.40
2023-01-11T05:31:17.293Z,101447.00
2023-01-11T05:32:26.327Z,101443.53
2023-01-11T05:33:36.268Z,101447.88
2023-01-11T05:34:46.041Z,101400.12
2023-01-11T05:37:16.972Z,101432.33
2023-01-11T05:38:26.072Z,101416.44
2023-01-11T05:39:36.009Z,101421.60
2023-01-11T05:40:44.807Z,101425.03
2023-01-11T05:41:53.327Z,101431.16
2023-01-11T05:43:02.532Z,101441.58
2023-01-11T05:45:46.989Z,101433.12
2023-01-11T05:46:58.058Z,101435.41
2023-01-11T05:48:06.386Z,101435.27
2023-01-11T05:49:15.302Z,101430.20
2023-01-11T05:50:24.921Z,101431.94
2023-01-11T05:51:35.775Z,101457.25
2023-01-11T05:52:45.055Z,101438.14
2023-01-11T05:53:54.006Z,101426.69
2023-01-11T05:55:03.304Z,101428.36
2023-01-11T05:56:13.197Z,101453.50
2023-01-11T05:58:38.326Z,101442.48
2023-01-11T05:59:48.107Z,101440.30
2023-01-11T06:00:57.700Z,101441.90
2023-01-11T06:03:24.548Z,101443.27
2023-01-11T06:04:33.721Z,101450.66
2023-01-11T06:05:45.901Z,101466.38
2023-01-11T06:06:54.475Z,101450.66
2023-01-11T06:08:04.216Z,101472.45
2023-01-11T06:10:28.045Z,101449.44
2023-01-11T06:11:36.867Z,101457.78
2023-01-11T06:14:05.461Z,101467.52
2023-01-11T06:15:21.238Z,101478.39
2023-01-11T06:16:31.326Z,101457.61
2023-01-11T06:17:41.573Z,101467.16
2023-01-11T06:18:51.918Z,101460.13
2023-01-11T06:21:20.192Z,101438.00
2023-01-11T06:22:29.305Z,101452.36
2023-01-11T06:23:42.216Z,101455.01
2023-01-11T06:24:51.722Z,101461.95
2023-01-11T06:27:20.362Z,101471.00
2023-01-11T06:28:29.713Z,101459.44
2023-01-11T06:29:38.837Z,101480.39
2023-01-11T06:30:55.517Z,101470.07
2023-01-11T10:33:04.944Z,101364.98
2023-01-11T10:36:06.840Z,101367.50
2023-01-11T10:37:25.468Z,101369.96
2023-01-11T10:40:24.461Z,101355.89
2023-01-11T10:43:03.295Z,101343.02
2023-01-11T10:44:18.771Z,101349.87
2023-01-11T10:45:38.438Z,101360.38
2023-01-11T10:46:52.144Z,101352.55
2023-01-11T10:49:43.105Z,101328.45
2023-01-11T10:52:45.089Z,101339.16
2023-01-11T10:55:50.970Z,101330.59
2023-01-11T10:57:20.038Z,101329.52
2023-01-11T10:58:38.413Z,101324.43
2023-01-11T11:00:13.815Z,101327.98
2023-01-11T11:01:49.951Z,101329.69
2023-01-11T11:03:09.232Z,101310.70
2023-01-11T11:04:33.430Z,101309.11
2023-01-11T11:07:19.476Z,101317.38
2023-01-11T11:08:45.795Z,101319.72
2023-01-11T11:10:04.103Z,101318.13
2023-01-11T11:11:33.360Z,101321.70
2023-01-11T11:14:13.458Z,101317.59
2023-01-11T11:16:56.505Z,101331.73
2023-01-11T11:18:06.279Z,101322.76
2023-01-11T11:19:18.729Z,101314.91
2023-01-11T11:20:33.607Z,101322.73
2023-01-11T11:23:00.101Z,101336.13
2023-01-11T11:25:39.521Z,101327.55
2023-01-11T11:26:57.461Z,101329.06
2023-01-11T11:29:56.472Z,101339.84
2023-01-11T11:31:07.667Z,101335.25
2023-01-11T11:33:48.718Z,101341.38
2023-01-11T11:34:58.287Z,101340.17
2023-01-11T11:36:10.149Z,101336.69
2023-01-11T11:37:23.158Z,101338.47
2023-01-11T11:39:54.907Z,101325.55
2023-01-11T11:42:26.542Z,101327.32
2023-01-11T11:45:11.440Z,101315.97
2023-01-11T11:46:26.433Z,101303.56
2023-01-11T11:47:36.349Z,101322.73
2023-01-11T11:49:06.076Z,101335.85
2023-01-11T11:51:38.412Z,101317.05
2023-01-11T11:54:06.668Z,101323.20
2023-01-11T11:55:17.073Z,101327.38
2023-01-11T11:56:31.052Z,101325.75
2023-01-11T11:57:43.355Z,101316.17
2023-01-11T11:58:53.855Z,101331.91
2023-01-11T12:01:36.105Z,101321.66
2023-01-11T12:02:52.017Z,101330.17
2023-01-11T12:04:05.100Z,101331.04
2023-01-11T12:06:31.246Z,101338.33
2023-01-11T12:07:54.682Z,101327.64
2023-01-11T12:10:21.137Z,101326.16
2023-01-11T12:11:34.936Z,101329.41
2023-01-11T12:14:18.389Z,101326.16
2023-01-11T12:16:47.348Z,101327.89
2023-01-11T12:18:15.394Z,101333.05
2023-01-11T12:21:19.004Z,101326.45
2023-01-11T12:22:29.397Z,101320.16
2023-01-11T12:23:38.592Z,101320.07
2023-01-11T12:26:18.830Z,101311.61
2023-01-11T12:29:03.174Z,101317.70
2023-01-11T12:30:21.338Z,101323.59
2023-01-11T12:33:13.968Z,101324.60
2023-01-11T12:34:32.920Z,101319.15
2023-01-11T12:35:52.284Z,101307.79
2023-01-11T12:37:32.135Z,101312.23
2023-01-11T12:40:11.612Z,101327.27
2023-01-11T12:44:21.357Z,101313.19
2023-01-11T12:45:46.959Z,101325.25
2023-01-11T12:46:59.958Z,101335.69
2023-01-11T12:48:24.229Z,101333.07
2023-01-11T12:49:46.804Z,101331.27
2023-01-11T12:51:34.203Z,101332.05
2023-01-11T12:54:27.656Z,101322.66
2023-01-11T12:55:52.518Z,101331.19
2023-01-11T12:57:26.060Z,101332.14
2023-01-11T12:58:38.310Z,101340.86
2023-01-11T13:00:10.347Z,101323.42
2023-01-11T13:05:16.553Z,101322.80
2023-01-11T13:06:41.537Z,101329.50
2023-01-11T13:09:35.064Z,101318.25
2023-01-11T13:11:12.920Z,101323.34
2023-01-11T13:13:58.359Z,101311.47
2023-01-11T13:15:25.945Z,101317.41
2023-01-11T13:18:34.400Z,101325.55
2023-01-11T13:19:55.693Z,101324.46
2023-01-11T13:22:40.010Z,101318.50
2023-01-11T13:25:25.571Z,101317.55
2023-01-11T13:28:04.976Z,101325.25
2023-01-11T13:29:31.517Z,101332.05
2023-01-11T13:30:43.660Z,101339.92
2023-01-11T13:33:14.499Z,101312.31
2023-01-11T13:34:38.865Z,101329.44
2023-01-11T13:35:54.421Z,101317.21
2023-01-11T13:38:29.731Z,101325.20
2023-01-11T13:41:18.257Z,101329.61
2023-01-11T13:42:36.532Z,101318.92
2023-01-11T13:43:51.787Z,101311.93
2023-01-11T13:47:08.762Z,101328.71
2023-01-11T13:48:24.190Z,101331.97
2023-01-11T13:51:19.931Z,101340.94
2023-01-11T13:52:50.669Z,101352.94
2023-01-11T13:55:38.427Z,101360.89
2023-01-11T18:17:02.819Z,101302.04
2023-01-11T18:19:57.716Z,101302.56
2023-01-11T18:21:28.322Z,101310.31
2023-01-11T18:24:14.251Z,101296.77
2023-01-11T18:25:29.126Z,101294.06
2023-01-11T18:28:27.951Z,101296.94
2023-01-11T18:31:01.125Z,101289.25
2023-01-11T18:32:12.448Z,101286.48
2023-01-11T18:34:52.028Z,101281.46
2023-01-11T18:36:03.831Z,101283.03
2023-01-11T18:39:51.642Z,101282.31
2023-01-11T18:41:07.879Z,101279.56
2023-01-11T18:42:20.118Z,101280.45
2023-01-11T18:43:32.656Z,101277.83
2023-01-11T18:44:46.330Z,101283.92
2023-01-11T18:47:22.953Z,101290.23
2023-01-11T18:48:32.366Z,101281.30
2023-01-11T18:49:42.119Z,101283.03
2023-01-11T18:50:54.712Z,101287.42
2023-01-11T18:52:05.857Z,101279.56
2023-01-11T18:54:32.627Z,101281.48
2023-01-11T18:55:42.091Z,101282.18
2023-01-11T18:56:51.936Z,101272.53
2023-01-11T18:58:02.433Z,101266.36
2023-01-11T18:59:11.079Z,101274.20
2023-01-11T19:01:52.814Z,101268.28
2023-01-11T19:02:47.460Z,101268.08
2023-01-11T19:03:56.203Z,101268.93
2023-01-11T19:05:14.483Z,101265.44
2023-01-11T19:06:27.866Z,101270.67
2023-01-11T19:07:37.644Z,101266.29
2023-01-11T19:08:47.474Z,101276.76
2023-01-11T19:11:13.894Z,101264.66
2023-01-11T19:13:39.398Z,101264.66
2023-01-11T19:16:10.311Z,101252.44
2023-01-11T19:17:21.234Z,101265.34
2023-01-11T19:18:33.075Z,101256.63
2023-01-11T19:19:42.674Z,101263.55
2023-01-11T19:20:51.337Z,101256.55
2023-01-11T19:22:00.072Z,101251.25
2023-01-11T19:23:09.602Z,101259.07
2023-01-11T19:24:18.525Z,101243.35
2023-01-11T19:25:27.373Z,101246.89
2023-01-11T19:26:37.647Z,101240.73
2023-01-11T19:27:46.949Z,101238.94
2023-01-11T19:28:57.295Z,101239.82
2023-01-11T19:30:07.781Z,101231.91
2023-01-11T19:31:17.884Z,101234.52
2023-01-11T19:32:26.881Z,101228.36
2023-01-11T19:33:35.676Z,101226.57
2023-01-11T19:34:45.906Z,101221.31
2023-01-11T19:35:54.788Z,101225.62
2023-01-11T19:37:03.737Z,101231.67
2023-01-11T19:39:28.709Z,101223.13
2023-01-11T19:40:37.377Z,101231.62
2023-01-11T19:41:54.313Z,101228.99
2023-01-11T19:43:03.777Z,101227.22
2023-01-11T19:44:15.607Z,101221.13
2023-01-11T19:45:25.207Z,101222.89
2023-01-11T19:46:34.470Z,101215.87
2023-01-11T19:47:43.306Z,101211.50
2023-01-11T19:48:52.966Z,101225.41
2023-01-11T19:50:04.051Z,101221.03
2023-01-11T19:51:12.949Z,101223.59
2023-01-11T19:52:22.909Z,101221.89
2023-01-11T19:53:32.511Z,101222.72
2023-01-11T19:54:42.588Z,101225.28
2023-01-11T19:55:51.849Z,101231.34
2023-01-11T19:57:00.368Z,101225.16
2023-01-11T19:58:09.039Z,101236.49
2023-01-11T19:59:19.533Z,101233.80
2023-01-11T20:00:29.239Z,101239.90
2023-01-11T20:01:39.692Z,101239.88
2023-01-11T20:02:48.335Z,101239.00
2023-01-11T20:03:58.861Z,101238.11
2023-01-11T20:05:08.005Z,101238.10
2023-01-11T20:06:17.534Z,101237.28
2023-01-11T20:07:26.082Z,101242.52
2023-01-11T20:08:38.973Z,101232.95
2023-01-11T20:09:47.624Z,101233.80
2023-01-11T20:12:14.977Z,101224.34
2023-01-11T20:14:39.897Z,101229.54
2023-01-11T20:15:48.519Z,101230.27
2023-01-11T20:16:57.155Z,101229.36
2023-01-11T20:18:06.839Z,101236.36
2023-01-11T20:19:16.559Z,101230.26
2023-01-11T20:20:25.372Z,101236.36
2023-01-11T20:21:34.564Z,101239.81
2023-01-11T20:22:45.332Z,101235.50
2023-01-11T20:23:57.938Z,101233.73
2023-01-11T20:25:08.715Z,101224.93
2023-01-11T20:26:18.140Z,101224.09
2023-01-11T20:27:27.845Z,101225.02
2023-01-11T20:28:37.408Z,101215.40
2023-01-11T20:29:47.229Z,101223.24
2023-01-11T20:30:57.965Z,101216.30
2023-01-11T20:32:27.880Z,101208.42
2023-01-11T20:33:17.212Z,101214.55
2023-01-11T20:34:34.472Z,101207.58
2023-01-11T20:35:48.042Z,101205.81
2023-01-11T20:36:56.675Z,101200.56
2023-01-11T20:38:06.359Z,101203.99
2023-01-11T20:39:15.140Z,101194.38
2023-01-11T20:40:24.486Z,101200.56
2023-01-11T20:43:04.457Z,101191.95
2023-01-11T20:44:18.891Z,101205.71
2023-01-11T20:45:28.758Z,101208.24
2023-01-11T20:47:54.791Z,101204.04
2023-01-11T20:49:04.976Z,101201.23
2023-01-11T20:50:16.671Z,101202.97
2023-01-11T20:51:25.475Z,101200.34
2023-01-11T20:52:34.450Z,101202.09
2023-01-11T20:53:44.120Z,101200.30
2023-01-11T20:54:53.772Z,101199.43
2023-01-11T20:56:07.266Z,101195.07
2023-01-11T20:58:37.343Z,101199.53
2023-01-11T20:59:46.884Z,101201.88
2023-01-11T21:02:15.393Z,101193.30
2023-01-11T21:03:25.889Z,101197.42
2023-01-11T21:04:35.405Z,101193.96
2023-01-11T21:05:44.875Z,101187.81
2023-01-11T21:06:53.396Z,101195.65
2023-01-11T21:08:03.149Z,101184.27
2023-01-11T21:10:30.532Z,101182.80
2023-01-11T21:11:39.723Z,101190.34
2023-01-11T21:12:51.492Z,101189.48
2023-01-11T21:14:03.373Z,101189.41
2023-01-11T21:15:11.906Z,101194.59
2023-01-11T21:17:39.453Z,101197.39
2023-01-11T21:18:51.361Z,101194.56
2023-01-11T21:20:01.055Z,101190.20
2023-01-11T21:21:15.919Z,101194.59
2023-01-11T21:22:25.014Z,101193.72
2023-01-11T21:23:33.560Z,101198.10
2023-01-11T21:24:43.088Z,101194.61
2023-01-11T21:25:54.253Z,101187.59
2023-01-11T21:27:04.356Z,101191.13
2023-01-11T21:28:14.352Z,101197.23
2023-01-11T21:29:22.964Z,101193.72
2023-01-11T21:30:32.086Z,101191.11
2023-01-11T21:31:42.420Z,101192.79
2023-01-11T21:32:52.175Z,101193.66
2023-01-11T21:34:02.105Z,101195.38
2023-01-11T21:35:10.747Z,101195.34
2023-01-11T21:36:23.911Z,101192.73
2023-01-11T21:37:33.640Z,101188.35
2023-01-11T21:38:42.829Z,101195.34
2023-01-11T21:39:52.706Z,101197.96
2023-01-11T21:42:23.228Z,101204.17
2023-01-11T21:43:32.742Z,101203.05
2023-01-11T21:44:41.377Z,101210.80
2023-01-11T21:45:56.177Z,101206.47
2023-01-11T21:47:06.088Z,101210.01
2023-01-11T21:48:15.799Z,101213.52
2023-01-11T21:49:25.008Z,101207.39
2023-01-11T21:50:35.941Z,101205.74
2023-01-11T21:51:45.532Z,101210.97
2023-01-11T21:52:54.735Z,101210.97
2023-01-11T21:54:05.986Z,101204.90
2023-01-11T21:55:15.410Z,101199.67
2023-01-11T21:56:25.518Z,101201.41
2023-01-11T21:57:34.057Z,101197.94
2023-01-11T21:58:44.668Z,101199.70
2023-01-11T21:59:53.939Z,101198.86
2023-01-11T22:02:30.512Z,101196.44
2023-01-11T22:03:43.662Z,101191.02
2023-01-11T22:04:54.516Z,101203.19
2023-01-11T22:06:03.163Z,101191.92
2023-01-11T22:07:12.178Z,101200.63
2023-01-11T22:08:21.773Z,101196.30
2023-01-11T22:09:32.033Z,101193.66
2023-01-11T22:10:40.659Z,101197.17
2023-01-11T22:11:50.532Z,101193.72
2023-01-11T22:14:15.027Z,101197.42
2023-01-11T22:15:24.898Z,101197.20
2023-01-11T22:16:35.278Z,101196.30
2023-01-11T22:17:45.261Z,101197.98
2023-01-11T22:18:55.880Z,101193.64
2023-01-11T22:20:07.305Z,101190.13
2023-01-11T22:21:19.068Z,101195.32
2023-01-11T22:22:29.223Z,101195.34
2023-01-11T22:23:38.649Z,101196.25
2023-01-11T22:24:48.940Z,101191.89
2023-01-11T22:25:59.335Z,101193.66
